Weather at Birmingham-Shuttlesworth International Airport

Public forecast

Using degrees Fahrenheit for public forecast. Weather courtesy of forecast.io.

Current aviation weather report (METAR) for Birmingham-Shuttlesworth International Airport

Retrieved 2020/09/30 16:53 UTC (9 minutes ago):

KBHM 301653Z 24009KT 10SM CLR 23/08 A3012 RMK AO2 SLP194 T02330078

Aviation forecast (TAF) for Birmingham-Shuttlesworth International Airport

Retrieved 2020/09/30 12:22 UTC (5 hours ago):

TAF KBHM 301120Z 3012/0112 00000KT P6SM SKC FM301500 24010KT P6SM SKC FM010000 23003KT P6SM SKC